Pagrindinis puslapis
METAR-TAF:

METAR-TAF

Oro uostai :

Celė, Vokietija

platuma: 52-36N, ilguma: 010-01E, Aukštis: 39 m

Dabartinis oras

Ataskaita buvo paskelbta 34 minutes, ne 14:20 UTC
Vėjas 11 kt iš Šiaurės Rytų
Temperatūra 20°C
Drėgmė 30%
Slėgis 1024 hPa
Matomumas: 8000 m

METAR: ETHC 301420Z AUTO 05011KT 8000 // ////// 20/02 Q1024 ///

Laikas: 16:54 (14:54 UTC)

Prognozė

Ataskaita buvo paskelbta 31 valandos ir 51 minutes, ne 07:03 UTC
Prognozė galioja nuo 29 metu 08 UTC su 29 metu 17 UTC
Vėjas 8 kt iš Rytų/Šiaurės Rytų
Matomumas 10 km arba daugiau
Išsisklaidę debesys ne aukštis 28000 ft

TAF: ETHC 290703Z 2908/2917 07008KT 9999 NSW SCT280

Orai ataskaitas ir orų prognozės (METAR, TAF).

turimą stotys yra geltonos ir raudonos taškus žemėlapyje.

Perkelti pele per norėdami pamatyti stoties vardą.

Tada spustelėkite, norėdami matyti oro stebėjimo ir prognozės.

Norėdami pakeisti žemėlapį: spustelėkite ant žalios mygtukų su juodo kryžiaus žemyn,; žalią mygtuką su brūkšneliu, jei norite nutolinti; arba žalių rodyklių gretimoms žemėlapius.


METAR-TAF: